createdAt,value
2023-01-20T00:00:54.651Z,97925.69
2023-01-20T00:03:57.905Z,97919.75
2023-01-20T00:07:00.627Z,97930.25
2023-01-20T00:10:03.414Z,97930.22
2023-01-20T00:13:07.307Z,97931.00
2023-01-20T00:16:10.540Z,97935.84
2023-01-20T00:19:14.189Z,97948.72
2023-01-20T00:22:16.882Z,97947.91
2023-01-20T00:25:19.629Z,97949.50
2023-01-20T00:28:23.636Z,97957.59
2023-01-20T00:31:27.516Z,97952.22
2023-01-20T00:34:30.450Z,97944.44
2023-01-20T00:37:33.083Z,97951.16
2023-01-20T00:40:35.668Z,97951.47
2023-01-20T00:43:39.891Z,97962.56
2023-01-20T00:46:42.695Z,97968.50
2023-01-20T00:49:45.258Z,97965.25
2023-01-20T00:52:47.853Z,97962.84
2023-01-20T00:55:50.623Z,97967.41
2023-01-20T00:58:55.162Z,97973.06
2023-01-20T01:01:58.144Z,97974.19
2023-01-20T01:05:00.807Z,97977.13
2023-01-20T01:08:03.457Z,97984.97
2023-01-20T01:11:06.841Z,97978.00
2023-01-20T01:14:11.167Z,97991.69
2023-01-20T01:17:13.807Z,97991.97
2023-01-20T01:20:16.525Z,97993.31
2023-01-20T01:23:19.165Z,97998.16
2023-01-20T01:26:22.031Z,98000.03
2023-01-20T01:29:26.541Z,98005.41
2023-01-20T01:32:29.173Z,98009.97
2023-01-20T01:35:31.736Z,98011.31
2023-01-20T01:38:34.274Z,98016.13
2023-01-20T01:41:36.897Z,98020.41
2023-01-20T01:45:21.313Z,98018.53
2023-01-20T01:48:25.507Z,98025.81
2023-01-20T01:51:30.788Z,98020.44
2023-01-20T01:54:36.070Z,98019.63
2023-01-20T01:57:38.951Z,98014.25
2023-01-20T02:00:43.252Z,98020.41
2023-01-20T02:03:52.984Z,98020.13
2023-01-20T02:06:57.701Z,98027.13
2023-01-20T02:10:00.686Z,98021.72
2023-01-20T02:13:03.460Z,98026.28
2023-01-20T02:16:13.780Z,98029.47
2023-01-20T02:19:34.566Z,98026.75
2023-01-20T02:22:43.923Z,98031.81
2023-01-20T02:25:59.437Z,98037.44
2023-01-20T02:29:20.216Z,98037.09
2023-01-20T02:32:28.469Z,98038.66
2023-01-20T02:35:36.729Z,98049.44
2023-01-20T02:38:43.561Z,98044.91
2023-01-20T02:41:53.001Z,98045.75
2023-01-20T02:44:58.758Z,98046.06
2023-01-20T02:48:03.979Z,98049.56
2023-01-20T02:51:10.494Z,98047.97
2023-01-20T02:54:14.952Z,98053.34
2023-01-20T02:57:20.089Z,98055.75
2023-01-20T03:00:26.727Z,98057.66
2023-01-20T03:03:33.965Z,98065.75
2023-01-20T03:06:39.143Z,98063.63
2023-01-20T03:09:44.483Z,98068.19
2023-01-20T03:12:48.094Z,98066.31
2023-01-20T03:15:56.846Z,98072.50
2023-01-20T03:19:00.766Z,98071.69
2023-01-20T03:22:03.225Z,98072.50
2023-01-20T03:25:06.924Z,98073.31
2023-01-20T03:28:09.932Z,98074.13
2023-01-20T03:31:18.006Z,98079.78
2023-01-20T03:34:24.005Z,98074.13
2023-01-20T03:37:26.570Z,98081.41
2023-01-20T03:40:33.107Z,98083.78
2023-01-20T03:43:43.978Z,98089.09
2023-01-20T03:46:49.137Z,98093.69
2023-01-20T03:49:57.083Z,98096.50
2023-01-20T03:53:02.887Z,98090.25
2023-01-20T03:56:08.785Z,98105.00
2023-01-20T03:59:14.256Z,98107.22
2023-01-20T04:02:16.997Z,98109.38
2023-01-20T04:05:21.096Z,98108.81
2023-01-20T04:08:25.504Z,98115.25
2023-01-20T04:11:28.184Z,98108.78
2023-01-20T04:14:30.839Z,98112.56
2023-01-20T04:17:33.489Z,98110.16
2023-01-20T04:20:37.510Z,98114.47
2023-01-20T04:23:41.386Z,98125.22
2023-01-20T04:26:43.763Z,98121.94
2023-01-20T04:29:46.410Z,98122.09
2023-01-20T04:33:04.357Z,98120.78
2023-01-20T04:36:08.754Z,98124.03
2023-01-20T04:39:11.417Z,98130.78
2023-01-20T04:42:14.055Z,98136.16
2023-01-20T04:45:17.859Z,98137.22
2023-01-20T04:48:20.398Z,98140.16
2023-01-20T04:51:24.268Z,98147.16
2023-01-20T04:54:26.869Z,98150.13
2023-01-20T04:57:29.573Z,98151.97
2023-01-20T05:00:32.323Z,98161.63
2023-01-20T05:03:35.021Z,98167.50
2023-01-20T05:06:42.616Z,98171.28
2023-01-20T05:09:45.854Z,98172.31
2023-01-20T05:12:48.627Z,98177.72
2023-01-20T05:15:51.347Z,98189.56
2023-01-20T05:18:55.088Z,98186.34
2023-01-20T05:22:00.384Z,98192.56
2023-01-20T05:25:03.205Z,98191.22
2023-01-20T05:28:05.870Z,98204.69
2023-01-20T05:31:08.634Z,98201.72
2023-01-20T05:34:11.426Z,98198.75
2023-01-20T05:37:17.885Z,98203.88
2023-01-20T05:40:20.556Z,98214.94
2023-01-20T05:43:23.123Z,98215.75
2023-01-20T05:46:25.833Z,98217.59
2023-01-20T05:49:28.499Z,98222.44
2023-01-20T05:52:32.544Z,98222.16
2023-01-20T05:55:35.386Z,98224.03
2023-01-20T05:58:38.005Z,98224.59
2023-01-20T06:01:41.067Z,98225.66
2023-01-20T06:04:43.894Z,98233.50
2023-01-20T06:07:49.571Z,98227.34
2023-01-20T06:10:53.789Z,98233.78
2023-01-20T06:13:56.460Z,98236.47
2023-01-20T06:16:59.001Z,98242.41
2023-01-20T06:20:01.712Z,98244.81
2023-01-20T06:23:05.834Z,98241.28
2023-01-20T06:26:12.780Z,98246.94
2023-01-20T06:29:15.482Z,98248.28
2023-01-20T06:32:18.116Z,98257.97
2023-01-20T06:35:21.559Z,98255.03
2023-01-20T06:38:26.644Z,98254.75
2023-01-20T06:41:29.249Z,98269.81
2023-01-20T06:44:31.958Z,98276.56
2023-01-20T06:47:34.567Z,98280.88
2023-01-20T06:50:37.197Z,98280.59
2023-01-20T06:53:41.657Z,98283.03
2023-01-20T06:56:44.326Z,98288.66
2023-01-20T06:59:46.933Z,98298.06
2023-01-20T07:02:49.511Z,98310.47
2023-01-20T07:05:55.338Z,98309.94
2023-01-20T07:09:00.848Z,98312.34
2023-01-20T07:12:08.605Z,98319.34
2023-01-20T07:15:12.030Z,98324.69
2023-01-20T07:18:40.035Z,98324.72
2023-01-20T07:21:46.263Z,98331.16
2023-01-20T07:24:50.247Z,98338.44
2023-01-20T07:27:53.144Z,98340.31
2023-01-20T07:35:31.827Z,98354.88
2023-01-20T07:38:35.581Z,98361.06
2023-01-20T07:41:45.141Z,98369.41
2023-01-20T07:44:49.511Z,98367.25
2023-01-20T07:48:44.279Z,98370.47
2023-01-20T07:52:00.120Z,98381.22
2023-01-20T07:55:08.099Z,98389.56
2023-01-20T07:58:25.797Z,98387.31
2023-01-20T08:01:37.134Z,98393.41
2023-01-20T08:09:04.328Z,98397.16
2023-01-20T08:12:38.594Z,98401.19
2023-01-20T08:15:42.623Z,98403.66
2023-01-20T08:18:45.729Z,98405.47
2023-01-20T08:21:48.582Z,98407.38
2023-01-20T08:24:51.315Z,98410.69
2023-01-20T08:28:30.408Z,98418.28
2023-01-20T08:31:36.351Z,98421.91
2023-01-20T08:35:08.487Z,98429.72
2023-01-20T08:42:25.029Z,98428.00
2023-01-20T08:45:57.363Z,98433.69
2023-01-20T08:49:11.893Z,98439.06
2023-01-20T08:52:22.701Z,98442.41
2023-01-20T08:55:25.299Z,98451.81
2023-01-20T08:58:28.676Z,98456.91
2023-01-20T09:01:33.639Z,98454.25
2023-01-20T09:04:38.539Z,98464.84
2023-01-20T09:07:43.630Z,98467.53
2023-01-20T09:10:46.655Z,98470.41
2023-01-20T09:13:49.787Z,98456.69
2023-01-20T09:16:52.874Z,98467.56
2023-01-20T09:19:57.067Z,98483.56
2023-01-20T09:23:02.526Z,98479.56
2023-01-20T09:26:06.552Z,98481.94
2023-01-20T09:29:12.724Z,98490.56
2023-01-20T09:32:18.474Z,98490.22
2023-01-20T09:35:22.720Z,98492.81
2023-01-20T09:38:43.617Z,98490.84
2023-01-20T09:42:06.301Z,98494.78
2023-01-20T09:45:24.765Z,98495.63
2023-01-20T09:48:53.451Z,98504.56
2023-01-20T09:52:28.809Z,98495.69
2023-01-20T09:55:42.719Z,98503.50
2023-01-20T09:58:49.829Z,98508.38
2023-01-20T10:01:58.883Z,98513.59
2023-01-20T10:05:09.746Z,98505.28
2023-01-20T10:08:17.103Z,98517.50
2023-01-20T10:11:21.793Z,98505.38
2023-01-20T10:14:32.217Z,98510.81
2023-01-20T10:17:45.520Z,98505.44
2023-01-20T10:20:56.063Z,98512.44
2023-01-20T10:24:02.334Z,98511.97
2023-01-20T10:27:07.771Z,98518.13
2023-01-20T10:30:12.373Z,98512.47
2023-01-20T10:33:20.174Z,98520.66
2023-01-20T10:36:27.544Z,98513.38
2023-01-20T10:39:39.009Z,98514.78
2023-01-20T10:42:41.811Z,98516.44
2023-01-20T10:46:02.502Z,98520.22
2023-01-20T10:49:21.353Z,98514.00
2023-01-20T10:52:36.677Z,98521.00
2023-01-20T10:55:54.372Z,98518.03
2023-01-20T10:59:01.388Z,98520.41
2023-01-20T11:02:31.621Z,98517.41
2023-01-20T11:05:38.367Z,98514.41
2023-01-20T11:08:44.459Z,98522.00
2023-01-20T11:11:51.929Z,98518.47
2023-01-20T11:15:01.236Z,98516.75
2023-01-20T11:18:28.981Z,98517.53
2023-01-20T11:21:37.771Z,98513.63
2023-01-20T11:24:44.574Z,98521.13
2023-01-20T11:27:48.841Z,98525.63
2023-01-20T11:30:53.410Z,98525.25
2023-01-20T11:33:58.975Z,98515.16
2023-01-20T11:37:18.890Z,98521.56
2023-01-20T11:40:24.536Z,98524.94
2023-01-20T11:43:45.328Z,98525.25
2023-01-20T11:46:48.879Z,98532.38
2023-01-20T11:50:27.360Z,98523.53
2023-01-20T11:53:32.050Z,98524.13
2023-01-20T11:56:40.044Z,98522.66
2023-01-20T11:59:51.457Z,98527.56
2023-01-20T12:02:58.615Z,98528.97
2023-01-20T12:06:04.645Z,98534.13
2023-01-20T12:09:12.608Z,98535.72
2023-01-20T12:12:21.527Z,98536.72
2023-01-20T12:15:37.127Z,98527.78
2023-01-20T12:19:04.854Z,98546.06
2023-01-20T12:22:14.955Z,98534.81
2023-01-20T12:25:34.344Z,98544.41
2023-01-20T12:29:05.087Z,98543.75
2023-01-20T12:32:11.487Z,98542.56
2023-01-20T12:35:24.708Z,98542.09
2023-01-20T12:38:33.916Z,98546.44
2023-01-20T12:42:30.241Z,98551.31
2023-01-20T12:46:04.374Z,98559.56
2023-01-20T12:49:32.022Z,98561.63
2023-01-20T12:53:02.199Z,98553.91
2023-01-20T12:56:13.455Z,98554.91
2023-01-20T12:59:23.663Z,98556.13
2023-01-20T13:02:45.814Z,98559.63
2023-01-20T13:06:10.338Z,98561.38
2023-01-20T13:09:26.749Z,98560.56
2023-01-20T13:12:37.010Z,98556.28
2023-01-20T13:15:43.583Z,98563.44
2023-01-20T13:19:03.403Z,98564.47
2023-01-20T13:22:12.538Z,98570.03
2023-01-20T13:25:17.490Z,98562.41
2023-01-20T13:28:21.894Z,98564.09
2023-01-20T13:31:34.285Z,98565.22
2023-01-20T13:34:40.618Z,98560.00
2023-01-20T13:37:49.757Z,98566.84
2023-01-20T13:40:54.737Z,98566.53
2023-01-20T13:43:57.530Z,98569.28
2023-01-20T13:47:00.112Z,98573.56
2023-01-20T13:50:23.503Z,98580.59
2023-01-20T13:53:29.018Z,98578.38
2023-01-20T13:56:33.745Z,98573.94
2023-01-20T13:59:37.396Z,98583.00
2023-01-20T14:02:41.071Z,98582.25
2023-01-20T14:05:43.667Z,98588.59
2023-01-20T14:08:49.645Z,98592.91
2023-01-20T14:15:40.029Z,98585.84
2023-01-20T14:18:42.959Z,98590.34
2023-01-20T14:21:45.657Z,98593.03
2023-01-20T14:24:52.619Z,98597.28
2023-01-20T14:27:55.797Z,98595.97
2023-01-20T14:31:19.718Z,98594.38
2023-01-20T14:34:29.204Z,98589.97
2023-01-20T14:37:33.579Z,98599.84
2023-01-20T14:40:37.598Z,98601.34
2023-01-20T14:43:46.940Z,98606.00
2023-01-20T14:46:51.193Z,98605.28
2023-01-20T14:49:54.992Z,98601.66
2023-01-20T14:52:57.851Z,98610.44
2023-01-20T14:56:03.114Z,98608.69
2023-01-20T14:59:05.796Z,98611.25
2023-01-20T15:02:18.196Z,98610.41
2023-01-20T15:05:31.324Z,98617.63
2023-01-20T15:08:56.734Z,98617.38
2023-01-20T15:12:37.858Z,98620.91
2023-01-20T15:15:43.446Z,98614.47
2023-01-20T15:19:33.261Z,98622.91
2023-01-20T15:22:35.925Z,98624.28
2023-01-20T15:25:38.540Z,98623.22
2023-01-20T15:28:45.158Z,98622.13
2023-01-20T15:31:47.862Z,98632.34
2023-01-20T15:34:50.537Z,98641.50
2023-01-20T15:37:55.155Z,98642.00
2023-01-20T15:40:57.999Z,98641.16
2023-01-20T15:44:02.278Z,98641.41
2023-01-20T15:47:13.968Z,98653.19
2023-01-20T15:50:20.896Z,98648.56
2023-01-20T15:53:23.630Z,98658.19
2023-01-20T15:56:28.034Z,98657.38
2023-01-20T15:59:32.458Z,98656.59
2023-01-20T16:02:35.250Z,98657.63
2023-01-20T16:05:37.889Z,98662.63
2023-01-20T16:08:40.735Z,98663.06
2023-01-20T16:11:43.893Z,98660.19
2023-01-20T16:14:47.969Z,98668.72
2023-01-20T16:17:52.719Z,98664.13
2023-01-20T16:20:55.426Z,98670.25
2023-01-20T16:23:58.081Z,98673.16
2023-01-20T16:27:00.731Z,98681.94
2023-01-20T16:30:05.658Z,98685.13
2023-01-20T16:33:16.996Z,98686.09
2023-01-20T16:36:21.155Z,98687.41
2023-01-20T16:39:23.908Z,98687.25
2023-01-20T16:42:26.541Z,98688.50
2023-01-20T16:45:31.525Z,98691.63
2023-01-20T16:48:34.247Z,98691.28
2023-01-20T16:51:37.020Z,98696.75
2023-01-20T16:54:39.822Z,98699.78
2023-01-20T16:57:44.100Z,98705.28
2023-01-20T17:00:48.241Z,98704.59
2023-01-20T17:03:52.358Z,98705.59
2023-01-20T17:06:55.140Z,98710.34
2023-01-20T17:09:58.452Z,98722.38
2023-01-20T17:13:01.155Z,98720.44
2023-01-20T17:16:05.788Z,98721.97
2023-01-20T17:19:10.100Z,98728.47
2023-01-20T17:22:12.914Z,98715.25
2023-01-20T17:25:17.876Z,98726.44
2023-01-20T17:28:20.690Z,98727.78
2023-01-20T17:31:26.018Z,98732.50
2023-01-20T17:34:28.921Z,98735.75
2023-01-20T17:37:31.651Z,98733.94
2023-01-20T17:40:34.285Z,98733.06
2023-01-20T17:43:38.479Z,98729.31
2023-01-20T17:46:42.430Z,98730.38
2023-01-20T17:49:45.288Z,98728.03
2023-01-20T17:52:48.086Z,98734.84
2023-01-20T17:55:55.222Z,98733.47
2023-01-20T17:59:03.011Z,98736.06
2023-01-20T18:02:07.102Z,98751.00
2023-01-20T18:05:10.335Z,98749.16
2023-01-20T18:08:13.897Z,98753.06
2023-01-20T18:11:16.705Z,98748.66
2023-01-20T18:14:19.423Z,98754.44
2023-01-20T18:17:23.614Z,98758.47
2023-01-20T18:20:26.504Z,98760.03
2023-01-20T18:23:29.388Z,98754.91
2023-01-20T18:26:34.129Z,98766.22
2023-01-20T18:29:36.897Z,98764.44
2023-01-20T18:32:41.193Z,98767.94
2023-01-20T18:35:43.924Z,98755.56
2023-01-20T18:38:50.549Z,98753.94
2023-01-20T18:41:53.388Z,98751.72
2023-01-20T18:44:55.978Z,98757.91
2023-01-20T18:47:59.949Z,98767.72
2023-01-20T18:51:02.607Z,98758.47
2023-01-20T18:54:07.377Z,98771.13
2023-01-20T18:57:10.013Z,98776.13
2023-01-20T19:00:13.654Z,98773.00
2023-01-20T19:03:18.777Z,98777.16
2023-01-20T19:06:22.870Z,98773.66
2023-01-20T19:09:26.162Z,98788.03
2023-01-20T19:12:28.761Z,98784.22
2023-01-20T19:15:33.584Z,98778.88
2023-01-20T19:18:38.246Z,98782.84
2023-01-20T19:21:40.963Z,98784.31
2023-01-20T19:24:43.782Z,98779.84
2023-01-20T19:27:46.400Z,98781.47
2023-01-20T19:30:49.179Z,98788.56
2023-01-20T19:33:54.117Z,98782.59
2023-01-20T19:36:57.489Z,98783.31
2023-01-20T19:40:00.257Z,98786.25
2023-01-20T19:43:02.949Z,98790.00
2023-01-20T19:46:06.847Z,98783.81
2023-01-20T19:49:11.382Z,98786.91
2023-01-20T19:52:14.673Z,98802.19
2023-01-20T19:55:17.416Z,98798.38
2023-01-20T19:58:20.047Z,98788.28
2023-01-20T20:01:24.161Z,98784.22
2023-01-20T20:04:28.418Z,98795.41
2023-01-20T20:07:31.013Z,98789.94
2023-01-20T20:10:33.690Z,98791.41
2023-01-20T20:13:36.547Z,98799.44
2023-01-20T20:16:39.828Z,98794.03
2023-01-20T20:19:44.161Z,98807.19
2023-01-20T20:22:46.826Z,98809.88
2023-01-20T20:25:49.813Z,98809.63
2023-01-20T20:28:53.202Z,98806.38
2023-01-20T20:31:55.822Z,98810.53
2023-01-20T20:35:00.389Z,98806.78
2023-01-20T20:38:03.267Z,98816.00
2023-01-20T20:41:07.828Z,98810.66
2023-01-20T20:44:11.704Z,98815.88
2023-01-20T20:47:14.095Z,98820.72
2023-01-20T20:50:19.524Z,98817.50
2023-01-20T20:53:22.594Z,98820.72
2023-01-20T20:56:27.893Z,98821.88
2023-01-20T20:59:30.516Z,98818.31
2023-01-20T21:02:33.225Z,98825.66
2023-01-20T21:05:37.244Z,98819.94
2023-01-20T21:08:40.271Z,98831.00
2023-01-20T21:11:43.364Z,98831.59
2023-01-20T21:14:46.433Z,98831.72
2023-01-20T21:17:49.046Z,98832.88
2023-01-20T21:20:57.464Z,98832.13
2023-01-20T21:24:00.201Z,98830.34
2023-01-20T21:27:02.907Z,98833.84
2023-01-20T21:30:06.316Z,98830.97
2023-01-20T21:33:13.237Z,98840.66
2023-01-20T21:36:17.156Z,98834.22
2023-01-20T21:39:20.506Z,98836.16
2023-01-20T21:42:23.079Z,98840.72
2023-01-20T21:45:25.665Z,98848.22
2023-01-20T21:48:45.633Z,98850.41
2023-01-20T21:52:07.243Z,98849.41
2023-01-20T21:55:11.447Z,98841.91
2023-01-20T21:58:14.445Z,98847.00
2023-01-20T22:01:17.109Z,98849.41
2023-01-20T22:04:20.187Z,98855.53
2023-01-20T22:07:24.471Z,98864.81
2023-01-20T22:10:27.093Z,98866.34
2023-01-20T22:13:29.895Z,98867.13
2023-01-20T22:16:33.016Z,98868.91
2023-01-20T22:19:36.232Z,98874.66
2023-01-20T22:22:40.263Z,98868.25
2023-01-20T22:25:42.912Z,98875.81
2023-01-20T22:28:45.514Z,98877.84
2023-01-20T22:31:48.467Z,98877.28
2023-01-20T22:34:51.047Z,98879.47
2023-01-20T22:37:55.020Z,98886.28
2023-01-20T22:41:03.269Z,98892.47
2023-01-20T22:44:06.029Z,98882.56
2023-01-20T22:47:10.780Z,98888.25
2023-01-20T22:50:13.824Z,98888.81
2023-01-20T22:53:17.824Z,98890.63
2023-01-20T22:56:24.441Z,98890.19
2023-01-20T22:59:27.449Z,98892.94
2023-01-20T23:02:30.040Z,98897.50
2023-01-20T23:05:32.727Z,98891.28
2023-01-20T23:08:36.950Z,98891.50
2023-01-20T23:11:40.159Z,98892.63
2023-01-20T23:15:01.314Z,98893.16
2023-01-20T23:18:04.113Z,98896.63
2023-01-20T23:21:07.024Z,98896.41
2023-01-20T23:24:10.910Z,98902.91
2023-01-20T23:27:13.410Z,98907.31
2023-01-20T23:30:16.730Z,98898.53
2023-01-20T23:33:19.457Z,98909.16
2023-01-20T23:36:23.734Z,98901.38
2023-01-20T23:39:27.662Z,98905.34
2023-01-20T23:42:30.202Z,98913.06
2023-01-20T23:45:32.751Z,98915.19
2023-01-20T23:48:36.120Z,98917.75
2023-01-20T23:51:38.896Z,98918.22
2023-01-20T23:54:42.914Z,98920.44
2023-01-20T23:57:45.450Z,98925.31
